Time;durP1;ratioP1;P1;durP2;ratioP2;P2;SDS_P1;SDS_P2;PMS_P1;PMS_P2;Temp;Humidity;BMP_temperature;BMP_pressure;BME280_temperature;BME280_humidity;BME280_pressure;Samples;Min_cycle;Max_cycle;Signal;HPM_P1;HPM_P2
2023/03/01 00:01:14;;;;;;;10.73;6.35;;;21.80;60.70;;;;;;5042650;28;20029;-69
2023/03/01 00:03:40;;;;;;;10.15;7.35;;;21.90;60.80;;;;;;5051835;28;20037;-69
2023/03/01 00:06:06;;;;;;;10.88;7.00;;;21.80;60.70;;;;;;5048317;28;20060;-69
2023/03/01 00:08:33;;;;;;;9.85;7.10;;;21.90;60.70;;;;;;5050937;28;20116;-68
2023/03/01 00:11:10;;;;;;;11.13;7.20;;;21.70;60.50;;;;;;5052581;28;20068;-69
2023/03/01 00:13:36;;;;;;;9.60;6.82;;;21.80;60.60;;;;;;5038343;28;20032;-69
2023/03/01 00:16:14;;;;;;;9.13;6.53;;;21.80;60.70;;;;;;5030352;28;20076;-69
2023/03/01 00:18:40;;;;;;;12.13;8.30;;;21.70;60.70;;;;;;5036505;28;20041;-69
2023/03/01 00:21:06;;;;;;;11.20;7.70;;;21.80;60.90;;;;;;5046855;28;20032;-69
2023/03/01 00:23:35;;;;;;;13.65;8.48;;;21.70;60.80;;;;;;5052575;28;20484;-68
2023/03/01 00:26:01;;;;;;;13.70;8.75;;;21.60;60.80;;;;;;5052400;28;20036;-69
2023/03/01 00:28:27;;;;;;;17.08;8.30;;;21.70;60.80;;;;;;5049969;28;20029;-69
2023/03/01 00:30:53;;;;;;;10.98;8.05;;;21.60;60.90;;;;;;5046272;28;20033;-69
2023/03/01 00:33:19;;;;;;;16.45;8.65;;;21.60;61.00;;;;;;5029045;28;20030;-69
2023/03/01 00:35:45;;;;;;;12.98;7.65;;;21.50;61.20;;;;;;5015284;28;20025;-69
2023/03/01 00:38:11;;;;;;;14.63;8.45;;;21.50;61.20;;;;;;5052511;28;20043;-69
2023/03/01 00:40:37;;;;;;;14.07;8.20;;;21.50;61.30;;;;;;5051980;28;20029;-69
2023/03/01 00:43:03;;;;;;;14.40;8.60;;;21.50;61.50;;;;;;5048619;28;20053;-68
2023/03/01 00:45:31;;;;;;;12.27;8.77;;;21.50;61.50;;;;;;5052210;28;20040;-69
2023/03/01 00:47:58;;;;;;;12.63;8.60;;;21.60;61.50;;;;;;5047841;28;20104;-69
2023/03/01 00:50:24;;;;;;;13.18;8.45;;;21.40;61.40;;;;;;5030188;28;20037;-68
2023/03/01 00:52:54;;;;;;;13.25;8.38;;;21.40;61.30;;;;;;5050096;28;20035;-69
2023/03/01 00:55:21;;;;;;;13.65;8.73;;;21.50;61.50;;;;;;5051864;28;20799;-69
2023/03/01 00:57:47;;;;;;;13.45;8.40;;;21.50;61.30;;;;;;5051768;28;20103;-68
2023/03/01 01:00:14;;;;;;;12.57;8.05;;;21.40;61.30;;;;;;5040357;28;20523;-69
2023/03/01 01:02:40;;;;;;;12.75;8.35;;;21.60;61.30;;;;;;5021551;28;20038;-69
2023/03/01 01:05:06;;;;;;;16.08;7.72;;;21.40;61.10;;;;;;5011941;28;20493;-68
2023/03/01 01:07:32;;;;;;;15.90;8.93;;;21.40;61.00;;;;;;5011520;28;20033;-68
2023/03/01 01:09:59;;;;;;;12.82;9.13;;;21.60;61.10;;;;;;5010723;28;20084;-69
2023/03/01 01:12:25;;;;;;;13.50;8.32;;;21.50;61.10;;;;;;5043290;28;20114;-68
2023/03/01 01:14:51;;;;;;;13.18;8.15;;;21.50;61.10;;;;;;5051135;28;20076;-68
2023/03/01 01:17:17;;;;;;;12.57;8.63;;;21.40;61.10;;;;;;5039299;28;20026;-69
2023/03/01 01:19:43;;;;;;;13.13;8.07;;;21.40;61.20;;;;;;5030148;28;20021;-69
2023/03/01 01:22:09;;;;;;;13.85;7.97;;;21.30;61.10;;;;;;5040763;28;20300;-69
2023/03/01 01:24:35;;;;;;;13.95;8.20;;;21.20;61.10;;;;;;5051070;28;20040;-68
2023/03/01 01:27:01;;;;;;;14.25;8.15;;;21.30;61.30;;;;;;5047630;28;20037;-69
2023/03/01 01:29:27;;;;;;;10.82;7.70;;;21.20;61.20;;;;;;5051097;28;20032;-69
2023/03/01 01:31:53;;;;;;;13.45;8.52;;;21.20;61.20;;;;;;5050020;28;20025;-69
2023/03/01 01:34:21;;;;;;;14.07;8.02;;;21.30;61.40;;;;;;5040740;28;20032;-69
2023/03/01 01:36:49;;;;;;;14.43;8.43;;;21.20;61.20;;;;;;5046602;28;20044;-69
2023/03/01 01:39:15;;;;;;;12.32;7.63;;;21.10;61.20;;;;;;5051419;28;20037;-69
2023/03/01 01:41:42;;;;;;;10.80;7.60;;;21.10;61.30;;;;;;5048568;28;20060;-69
2023/03/01 01:44:28;;;;;;;13.88;8.38;;;21.00;61.30;;;;;;5051053;28;20033;-69
2023/03/01 01:47:07;;;;;;;15.40;8.38;;;21.20;61.50;;;;;;5050964;28;20575;-69
2023/03/01 01:49:45;;;;;;;14.40;7.97;;;21.10;61.40;;;;;;5046337;28;20040;-69
2023/03/01 01:52:18;;;;;;;12.55;9.07;;;21.20;61.20;;;;;;5043684;28;20492;-69
2023/03/01 01:55:05;;;;;;;13.95;8.90;;;21.20;61.20;;;;;;5051054;28;20552;-69
2023/03/01 01:57:47;;;;;;;15.00;8.27;;;21.20;61.10;;;;;;5045602;28;20337;-69
2023/03/01 02:00:13;;;;;;;12.77;7.63;;;21.20;61.00;;;;;;5050966;28;20039;-69
2023/03/01 02:02:40;;;;;;;15.88;9.10;;;21.20;61.00;;;;;;5043825;28;20458;-69
2023/03/01 02:05:16;;;;;;;13.07;8.38;;;21.20;60.90;;;;;;5016351;28;20045;-69
2023/03/01 02:07:43;;;;;;;11.82;8.20;;;21.20;60.80;;;;;;5041439;28;20064;-69
2023/03/01 02:10:09;;;;;;;13.07;9.10;;;21.20;60.70;;;;;;5050989;28;20052;-68
2023/03/01 02:12:37;;;;;;;17.45;8.57;;;21.20;60.70;;;;;;5026469;28;20064;-68
2023/03/01 02:15:04;;;;;;;16.67;8.60;;;21.10;60.70;;;;;;5011413;28;20091;-69
2023/03/01 02:17:30;;;;;;;16.52;9.40;;;21.20;61.10;;;;;;5010375;28;20355;-69
2023/03/01 02:20:15;;;;;;;13.20;8.55;;;21.10;61.10;;;;;;5028498;28;20033;-69
2023/03/01 02:22:44;;;;;;;14.25;8.80;;;21.00;61.20;;;;;;5039792;28;20131;-69
2023/03/01 02:25:19;;;;;;;14.88;8.63;;;21.00;61.40;;;;;;5029499;28;20037;-69
2023/03/01 02:28:15;;;;;;;11.40;8.00;;;21.00;61.40;;;;;;5037005;28;20061;-69
2023/03/01 02:33:38;;;;;;;12.68;7.95;;;20.90;61.60;;;;;;5016037;28;20033;-69
2023/03/01 02:36:09;;;;;;;13.27;8.60;;;20.90;61.70;;;;;;5025057;28;20077;-68
2023/03/01 02:38:35;;;;;;;14.25;9.13;;;21.00;62.00;;;;;;5011593;28;20148;-69
2023/03/01 02:41:05;;;;;;;14.95;9.55;;;20.80;61.90;;;;;;5012083;28;20169;-69
2023/03/01 02:43:33;;;;;;;13.98;8.45;;;20.70;61.90;;;;;;5012342;28;20096;-69
2023/03/01 02:46:04;;;;;;;14.63;9.40;;;20.90;61.90;;;;;;5011769;28;20080;-69
2023/03/01 02:48:42;;;;;;;14.93;8.13;;;20.70;61.80;;;;;;4996319;28;20033;-69
2023/03/01 02:51:34;;;;;;;15.43;8.57;;;20.70;61.80;;;;;;5010079;28;20494;-69
2023/03/01 02:54:36;;;;;;;15.90;8.88;;;20.80;61.90;;;;;;4994411;28;20049;-69
2023/03/01 02:57:03;;;;;;;11.95;8.38;;;20.70;61.80;;;;;;4915377;29;20070;-69
2023/03/01 02:59:39;;;;;;;15.88;8.68;;;20.70;61.90;;;;;;4912300;29;20428;-69
2023/03/01 03:02:35;;;;;;;12.75;8.65;;;20.70;61.80;;;;;;4896690;29;20052;-69
2023/03/01 03:05:13;;;;;;;15.77;8.77;;;20.70;61.80;;;;;;4880957;29;20089;-69
2023/03/01 03:07:43;;;;;;;14.88;9.15;;;20.70;61.90;;;;;;4891940;29;20532;-69
2023/03/01 03:10:15;;;;;;;16.85;9.27;;;20.60;61.70;;;;;;4896508;29;20068;-69
2023/03/01 03:12:42;;;;;;;16.40;9.27;;;20.70;61.70;;;;;;4896032;29;20044;-69
2023/03/01 03:15:10;;;;;;;15.45;9.43;;;20.90;61.60;;;;;;4896390;29;20481;-69
2023/03/01 03:17:39;;;;;;;14.82;10.45;;;20.70;61.30;;;;;;4881299;29;20071;-69
2023/03/01 03:20:11;;;;;;;13.70;8.93;;;20.80;61.10;;;;;;4882583;29;20049;-69
2023/03/01 03:22:39;;;;;;;16.17;10.02;;;20.90;61.20;;;;;;4878060;29;20068;-69
2023/03/01 03:25:11;;;;;;;16.27;10.70;;;20.90;61.10;;;;;;4903615;29;20040;-69
2023/03/01 03:27:41;;;;;;;15.33;9.73;;;20.80;60.90;;;;;;4902488;29;20045;-69
2023/03/01 03:30:12;;;;;;;15.73;9.57;;;21.00;60.90;;;;;;4896604;29;20484;-69
2023/03/01 03:32:51;;;;;;;17.10;10.20;;;20.80;60.60;;;;;;4912558;28;20567;-69
2023/03/01 03:35:29;;;;;;;18.83;10.88;;;21.00;60.60;;;;;;5006906;28;20156;-69
2023/03/01 03:38:05;;;;;;;16.02;10.43;;;21.00;60.70;;;;;;5045715;28;20055;-69
2023/03/01 03:40:34;;;;;;;17.17;10.82;;;21.20;60.70;;;;;;5019381;28;20041;-69
2023/03/01 03:43:00;;;;;;;15.35;10.10;;;21.00;60.70;;;;;;5013573;28;20624;-69
2023/03/01 03:45:27;;;;;;;15.88;10.77;;;21.10;60.80;;;;;;5013762;28;20105;-69
2023/03/01 03:47:53;;;;;;;17.95;11.32;;;21.10;60.90;;;;;;5014027;28;20117;-69
2023/03/01 03:50:19;;;;;;;16.90;11.05;;;21.10;60.80;;;;;;5013949;28;20113;-69
2023/03/01 03:52:45;;;;;;;16.83;11.55;;;21.20;60.90;;;;;;5040407;28;20029;-69
2023/03/01 03:55:12;;;;;;;21.45;11.73;;;21.10;60.80;;;;;;5035534;28;20104;-69
2023/03/01 03:57:40;;;;;;;18.33;11.40;;;21.10;60.90;;;;;;5032152;28;20044;-69
2023/03/01 04:00:14;;;;;;;17.45;11.75;;;21.20;61.10;;;;;;5033494;28;20047;-69
2023/03/01 04:02:41;;;;;;;18.80;10.82;;;21.20;61.00;;;;;;5030414;28;20050;-69
2023/03/01 04:05:09;;;;;;;20.08;11.50;;;21.10;60.90;;;;;;5016659;28;20452;-69
2023/03/01 04:07:35;;;;;;;19.40;12.30;;;21.20;61.00;;;;;;5048894;28;20033;-68
2023/03/01 04:10:06;;;;;;;19.90;11.90;;;21.20;61.10;;;;;;5052833;28;20072;-69
2023/03/01 04:12:36;;;;;;;17.17;11.48;;;21.20;61.20;;;;;;5041830;28;20025;-69
2023/03/01 04:15:13;;;;;;;21.88;13.30;;;21.30;61.30;;;;;;5052819;28;20057;-69
2023/03/01 04:17:44;;;;;;;19.05;12.00;;;21.30;61.30;;;;;;5035836;28;20037;-69
2023/03/01 04:20:12;;;;;;;19.45;12.55;;;21.40;61.30;;;;;;5031493;28;20033;-69
2023/03/01 04:22:39;;;;;;;20.77;12.38;;;21.30;61.40;;;;;;5044444;28;20041;-69
2023/03/01 04:25:06;;;;;;;20.08;12.68;;;21.10;61.30;;;;;;5052943;28;20044;-69
2023/03/01 04:27:35;;;;;;;23.92;13.10;;;21.20;61.30;;;;;;5050714;28;20048;-69
2023/03/01 04:30:03;;;;;;;19.92;12.40;;;21.10;61.30;;;;;;5052906;28;20033;-69
2023/03/01 04:32:29;;;;;;;22.92;13.10;;;21.30;61.80;;;;;;5051902;28;20036;-69
2023/03/01 04:34:55;;;;;;;26.27;15.02;;;21.40;61.50;;;;;;5037614;28;20057;-69
2023/03/01 04:37:21;;;;;;;22.52;14.32;;;21.30;61.40;;;;;;5039672;28;20511;-69
2023/03/01 04:39:47;;;;;;;23.52;14.45;;;21.40;61.30;;;;;;5052705;28;20170;-69
2023/03/01 04:42:17;;;;;;;25.75;15.70;;;21.30;61.40;;;;;;5052439;28;20037;-69
2023/03/01 04:44:43;;;;;;;22.35;13.35;;;21.30;61.40;;;;;;5046747;28;20108;-70
2023/03/01 04:47:10;;;;;;;26.58;15.45;;;21.40;61.70;;;;;;5032040;28;20025;-70
2023/03/01 04:49:36;;;;;;;25.10;15.20;;;21.40;61.80;;;;;;5032121;28;20477;-70
2023/03/01 04:52:04;;;;;;;24.52;14.85;;;21.50;61.70;;;;;;5037490;28;20041;-70
2023/03/01 04:54:34;;;;;;;23.63;14.95;;;21.40;62.20;;;;;;5025053;28;20113;-70
2023/03/01 04:57:02;;;;;;;23.98;15.57;;;21.30;62.60;;;;;;5037781;28;20071;-70
2023/03/01 04:59:28;;;;;;;27.13;16.85;;;21.20;62.70;;;;;;5052140;28;20039;-70
2023/03/01 05:01:56;;;;;;;24.95;15.43;;;21.20;63.00;;;;;;5051713;28;20029;-70
2023/03/01 05:04:24;;;;;;;26.33;15.20;;;21.20;63.10;;;;;;5051565;28;20047;-69
2023/03/01 05:06:50;;;;;;;23.40;14.73;;;21.10;63.20;;;;;;5044066;28;20037;-70
2023/03/01 05:09:16;;;;;;;29.20;16.40;;;21.20;63.50;;;;;;5036968;28;20057;-70
2023/03/01 05:11:42;;;;;;;25.25;16.17;;;21.30;63.30;;;;;;5046663;28;20384;-69
2023/03/01 05:14:09;;;;;;;25.33;14.95;;;21.20;63.20;;;;;;5022047;28;20037;-70
2023/03/01 05:16:36;;;;;;;30.55;16.17;;;21.10;63.40;;;;;;5031611;28;20033;-69
2023/03/01 05:19:11;;;;;;;25.63;15.52;;;21.10;63.60;;;;;;5030835;28;20029;-69
2023/03/01 05:22:01;;;;;;;24.80;14.75;;;21.10;63.50;;;;;;5038157;28;20036;-69
2023/03/01 05:24:27;;;;;;;25.08;14.85;;;21.00;63.90;;;;;;5011637;28;20518;-70
2023/03/01 05:26:53;;;;;;;26.50;16.13;;;21.00;63.90;;;;;;5019352;28;20037;-69
2023/03/01 05:29:24;;;;;;;26.88;14.50;;;21.10;64.10;;;;;;5030979;28;20116;-70
2023/03/01 05:31:55;;;;;;;26.98;15.48;;;20.90;64.50;;;;;;5030375;28;20041;-69
2023/03/01 05:34:26;;;;;;;24.52;15.65;;;20.90;63.50;;;;;;5031653;28;20041;-69
2023/03/01 05:36:53;;;;;;;28.85;16.38;;;20.80;63.80;;;;;;5038791;28;20037;-70
2023/03/01 05:39:23;;;;;;;27.48;16.25;;;20.90;64.40;;;;;;5043748;28;20029;-70
2023/03/01 05:41:54;;;;;;;28.63;16.55;;;20.90;64.00;;;;;;5048979;28;20044;-70
2023/03/01 05:44:20;;;;;;;26.95;17.23;;;20.90;64.00;;;;;;5029338;28;20492;-70
2023/03/01 05:46:47;;;;;;;24.42;15.80;;;20.90;64.30;;;;;;5031188;28;20466;-70
2023/03/01 05:49:13;;;;;;;27.52;16.17;;;20.90;64.40;;;;;;5031296;28;20033;-70
2023/03/01 05:51:41;;;;;;;30.25;16.88;;;20.80;64.30;;;;;;5040381;28;20396;-70
2023/03/01 05:54:07;;;;;;;31.17;16.23;;;20.90;64.20;;;;;;5045252;28;20060;-70
2023/03/01 05:56:34;;;;;;;24.13;14.98;;;20.90;64.20;;;;;;5049727;28;20044;-70
2023/03/01 05:59:01;;;;;;;22.38;14.10;;;20.90;64.00;;;;;;5033100;28;20552;-70
2023/03/01 06:01:27;;;;;;;26.05;15.93;;;21.00;63.90;;;;;;5036973;28;20044;-70
2023/03/01 06:03:53;;;;;;;22.77;14.02;;;20.90;64.00;;;;;;5028610;28;20030;-70
2023/03/01 06:06:19;;;;;;;28.05;15.98;;;20.90;63.70;;;;;;5032033;28;20049;-70
2023/03/01 06:08:45;;;;;;;27.48;16.20;;;21.00;63.60;;;;;;5047212;28;20542;-70
2023/03/01 06:11:11;;;;;;;28.80;16.67;;;21.00;63.50;;;;;;5054781;28;20075;-70
2023/03/01 06:13:37;;;;;;;26.88;15.23;;;21.00;63.50;;;;;;5053918;28;20033;-70
2023/03/01 06:16:07;;;;;;;30.05;16.35;;;21.10;63.20;;;;;;5052429;28;20029;-69
2023/03/01 06:18:33;;;;;;;25.65;15.48;;;21.00;63.20;;;;;;5035310;28;20041;-70
2023/03/01 06:20:59;;;;;;;24.17;14.60;;;21.00;63.00;;;;;;5034934;28;20045;-70
2023/03/01 06:23:25;;;;;;;29.25;14.65;;;21.10;63.80;;;;;;5039623;28;20037;-69
2023/03/01 06:25:51;;;;;;;25.10;14.68;;;21.00;63.10;;;;;;5045511;28;20048;-69
2023/03/01 06:28:17;;;;;;;27.33;14.30;;;21.00;64.10;;;;;;5044887;28;20496;-70
2023/03/01 06:30:44;;;;;;;24.15;16.50;;;20.90;63.90;;;;;;5044141;28;20060;-70
2023/03/01 06:33:10;;;;;;;25.80;16.67;;;21.10;61.30;;;;;;5029324;28;20089;-69
2023/03/01 06:35:36;;;;;;;20.05;12.75;;;21.10;56.20;;;;;;5025703;28;20034;-70
2023/03/01 06:38:03;;;;;;;18.33;11.75;;;21.20;51.20;;;;;;5023884;28;20045;-70
2023/03/01 06:40:31;;;;;;;19.83;12.57;;;21.40;50.50;;;;;;5034683;28;20135;-69
2023/03/01 06:42:57;;;;;;;22.60;13.43;;;21.50;50.50;;;;;;5029050;28;20128;-70
2023/03/01 06:45:24;;;;;;;21.83;14.48;;;21.60;50.50;;;;;;5034202;28;20026;-69
2023/03/01 06:47:50;;;;;;;22.00;13.88;;;21.70;52.20;;;;;;5057206;28;20088;-69
2023/03/01 06:50:17;;;;;;;23.88;14.82;;;21.90;51.80;;;;;;5023537;28;20417;-71
2023/03/01 06:52:44;;;;;;;20.75;12.82;;;21.90;52.60;;;;;;5025611;28;20119;-70
2023/03/01 06:55:12;;;;;;;20.65;14.98;;;22.10;50.80;;;;;;5045435;28;20030;-70
2023/03/01 06:57:38;;;;;;;20.27;16.20;;;22.20;48.00;;;;;;5046233;28;20496;-68
2023/03/01 07:00:05;;;;;;;26.00;15.50;;;22.10;48.90;;;;;;5028439;28;20034;-70
2023/03/01 07:02:31;;;;;;;20.35;14.43;;;22.20;50.20;;;;;;5015912;28;20390;-70
2023/03/01 07:04:57;;;;;;;22.70;15.07;;;22.00;45.50;;;;;;5029849;28;20088;-70
2023/03/01 07:07:24;;;;;;;22.15;15.07;;;22.10;48.60;;;;;;5033933;28;20437;-68
2023/03/01 07:09:50;;;;;;;1.58;1.48;;;22.20;49.40;;;;;;5032757;28;20088;-71
2023/03/01 07:12:16;;;;;;;14.13;6.82;;;22.40;61.30;;;;;;5033969;28;20068;-70
2023/03/01 07:14:44;;;;;;;2.20;2.05;;;22.60;61.10;;;;;;5019944;28;20030;-70
2023/03/01 07:17:10;;;;;;;6.43;3.08;;;22.70;58.60;;;;;;5016151;28;20034;-69
2023/03/01 07:19:36;;;;;;;14.00;7.95;;;22.70;55.20;;;;;;5012692;28;20037;-68
2023/03/01 07:22:04;;;;;;;4.38;3.28;;;22.90;53.00;;;;;;5030311;28;20045;-68
2023/03/01 07:24:30;;;;;;;6.78;4.10;;;23.00;51.40;;;;;;5031738;28;20117;-68
2023/03/01 07:26:56;;;;;;;10.85;7.32;;;22.90;51.90;;;;;;5033544;28;20140;-69
2023/03/01 07:29:22;;;;;;;20.40;12.82;;;23.10;52.20;;;;;;5032550;28;20105;-69
2023/03/01 07:31:47;;;;;;;7.97;5.25;;;23.10;55.60;;;;;;5036360;28;20027;-69
2023/03/01 07:34:13;;;;;;;7.28;4.95;;;23.10;57.30;;;;;;5025503;28;20056;-70
2023/03/01 07:36:42;;;;;;;14.25;7.07;;;23.20;57.50;;;;;;5032717;28;20029;-71
2023/03/01 07:39:10;;;;;;;3.00;2.08;;;23.10;55.90;;;;;;5031185;28;20040;-69
2023/03/01 07:41:36;;;;;;;5.65;4.22;;;23.30;52.10;;;;;;5033485;28;20041;-71
2023/03/01 07:44:03;;;;;;;18.63;10.00;;;23.10;50.20;;;;;;5024825;28;20038;-68
2023/03/01 07:46:28;;;;;;;22.70;13.82;;;23.20;50.20;;;;;;5030340;28;20036;-73
2023/03/01 07:48:54;;;;;;;27.63;15.57;;;23.10;51.90;;;;;;5035129;28;20030;-70
2023/03/01 07:51:20;;;;;;;25.90;15.75;;;23.20;52.00;;;;;;5033225;28;20150;-70
2023/03/01 07:53:47;;;;;;;25.75;15.32;;;22.90;52.60;;;;;;5032416;28;20121;-71
2023/03/01 07:56:17;;;;;;;29.40;15.63;;;22.90;53.40;;;;;;5030615;28;20496;-72
2023/03/01 07:58:44;;;;;;;24.40;15.13;;;22.80;53.50;;;;;;5030929;28;20028;-70
2023/03/01 08:01:13;;;;;;;25.88;14.85;;;22.70;54.00;;;;;;5032864;28;20040;-70
2023/03/01 08:03:39;;;;;;;21.70;13.32;;;22.60;54.50;;;;;;5036765;28;20017;-67
2023/03/01 08:06:07;;;;;;;24.08;13.65;;;22.40;54.70;;;;;;5031263;28;20060;-68
2023/03/01 08:08:33;;;;;;;23.55;13.85;;;22.40;57.20;;;;;;5031606;28;20104;-69
2023/03/01 08:11:01;;;;;;;25.88;13.80;;;22.30;57.90;;;;;;5030754;28;20057;-69
2023/03/01 08:13:28;;;;;;;20.67;12.73;;;22.30;57.70;;;;;;5032472;28;20045;-68
2023/03/01 08:15:54;;;;;;;23.92;13.40;;;22.30;57.60;;;;;;5012793;28;20037;-68
2023/03/01 08:18:21;;;;;;;25.88;14.13;;;22.30;57.70;;;;;;5013859;28;20115;-68
2023/03/01 08:20:47;;;;;;;24.90;14.55;;;22.30;58.70;;;;;;5030716;28;20456;-69
2023/03/01 08:23:13;;;;;;;22.92;14.45;;;22.10;58.20;;;;;;5032701;28;20139;-69
2023/03/01 08:25:39;;;;;;;22.80;14.10;;;22.30;58.20;;;;;;5032294;28;20041;-69
2023/03/01 08:28:05;;;;;;;24.23;14.35;;;22.20;57.70;;;;;;5030415;28;20033;-69
2023/03/01 08:30:32;;;;;;;22.70;13.55;;;22.20;57.80;;;;;;5009102;28;20435;-70
2023/03/01 08:32:58;;;;;;;25.85;13.35;;;22.20;58.10;;;;;;5031798;28;20049;-69
2023/03/01 08:35:24;;;;;;;22.02;13.45;;;22.00;58.00;;;;;;5031833;28;20060;-68
2023/03/01 08:37:50;;;;;;;23.38;12.63;;;22.20;58.00;;;;;;5035046;28;20028;-69
2023/03/01 08:40:16;;;;;;;26.75;13.18;;;22.10;58.10;;;;;;5049771;28;20500;-72
2023/03/01 08:42:42;;;;;;;21.85;13.73;;;22.20;58.40;;;;;;5035478;28;20037;-70
2023/03/01 08:45:10;;;;;;;22.55;13.23;;;22.10;58.30;;;;;;5043693;28;20088;-69
2023/03/01 08:47:36;;;;;;;24.15;11.95;;;22.00;58.60;;;;;;5037097;28;20033;-70
2023/03/01 08:50:04;;;;;;;20.05;11.73;;;22.10;58.90;;;;;;5049265;28;20095;-71
2023/03/01 08:52:32;;;;;;;21.75;11.70;;;22.10;58.50;;;;;;5026314;28;20040;-70
2023/03/01 08:55:01;;;;;;;20.90;12.65;;;22.10;58.70;;;;;;5031032;28;20037;-70
2023/03/01 08:57:27;;;;;;;22.67;12.55;;;22.10;58.90;;;;;;5037932;28;20021;-70
2023/03/01 08:59:55;;;;;;;22.27;12.63;;;22.10;58.90;;;;;;5047479;28;20028;-71
2023/03/01 09:02:22;;;;;;;20.75;10.77;;;22.20;59.40;;;;;;5046395;28;20041;-71
2023/03/01 09:04:48;;;;;;;18.85;10.88;;;22.30;59.10;;;;;;5029937;28;20120;-71
2023/03/01 09:07:14;;;;;;;19.05;11.13;;;22.30;58.90;;;;;;5031541;28;20120;-73
2023/03/01 09:09:40;;;;;;;21.25;11.50;;;22.30;59.00;;;;;;5027449;28;20049;-73
2023/03/01 09:12:06;;;;;;;22.73;11.35;;;22.20;59.50;;;;;;5036204;28;20044;-71
2023/03/01 09:14:32;;;;;;;19.08;11.85;;;22.20;59.80;;;;;;5051481;28;20033;-70
2023/03/01 09:16:58;;;;;;;44.00;17.27;;;22.30;52.40;;;;;;5024833;28;20505;-69
2023/03/01 09:19:24;;;;;;;20.40;11.95;;;22.60;54.20;;;;;;5007796;28;21021;-69
2023/03/01 09:21:53;;;;;;;17.25;10.18;;;22.80;42.80;;;;;;5018981;28;20053;-71
2023/03/01 09:24:23;;;;;;;17.17;10.63;;;22.90;43.10;;;;;;5027298;28;20042;-70
2023/03/01 09:26:52;;;;;;;20.60;9.57;;;22.90;44.10;;;;;;5004041;28;20037;-73
2023/03/01 09:29:18;;;;;;;17.65;10.77;;;23.00;55.00;;;;;;5008519;28;20046;-73
2023/03/01 09:31:44;;;;;;;16.92;9.90;;;22.90;56.00;;;;;;5014424;28;20104;-73
2023/03/01 09:34:11;;;;;;;17.23;10.80;;;22.90;57.20;;;;;;5006681;28;20041;-72
2023/03/01 09:36:37;;;;;;;19.90;9.50;;;22.90;57.80;;;;;;5006176;28;20158;-74
2023/03/01 09:39:06;;;;;;;14.38;9.27;;;23.00;58.20;;;;;;5011069;28;20038;-74
2023/03/01 09:41:54;;;;;;;16.45;10.07;;;22.90;57.70;;;;;;4990406;28;20054;-73
2023/03/01 09:44:35;;;;;;;14.05;9.25;;;22.90;58.70;;;;;;5001197;28;20398;-74
2023/03/01 09:47:01;;;;;;;13.70;8.38;;;22.80;58.80;;;;;;4994593;28;20033;-73
2023/03/01 09:49:40;;;;;;;14.57;8.38;;;22.90;58.90;;;;;;5016140;28;20083;-75
2023/03/01 09:52:32;;;;;;;12.32;7.22;;;23.00;58.00;;;;;;5028413;28;20469;-73
2023/03/01 09:54:58;;;;;;;11.38;6.93;;;22.90;58.40;;;;;;5043036;28;20045;-72
2023/03/01 09:57:45;;;;;;;12.50;7.90;;;23.00;58.70;;;;;;5049168;28;20477;-72
2023/03/01 10:00:14;;;;;;;12.88;8.10;;;23.00;58.20;;;;;;5025522;28;20127;-73
2023/03/01 10:03:12;;;;;;;14.15;8.55;;;23.00;58.50;;;;;;5022858;28;20632;-73
2023/03/01 10:05:49;;;;;;;11.93;8.02;;;23.00;58.90;;;;;;5001493;28;20045;-73
2023/03/01 10:08:35;;;;;;;13.75;8.23;;;23.00;58.80;;;;;;5014036;28;20113;-76
2023/03/01 10:11:03;;;;;;;15.50;7.90;;;23.00;59.20;;;;;;4997743;28;20089;-75
2023/03/01 10:13:48;;;;;;;13.82;8.20;;;23.00;59.10;;;;;;5007415;28;20688;-74
2023/03/01 10:16:16;;;;;;;16.17;8.75;;;23.00;59.40;;;;;;5012868;28;20072;-74
2023/03/01 10:18:45;;;;;;;10.27;6.85;;;22.90;59.60;;;;;;4999887;28;20580;-74
2023/03/01 10:21:18;;;;;;;11.93;6.35;;;23.00;59.10;;;;;;4998201;28;20044;-74
2023/03/01 10:23:44;;;;;;;11.27;7.03;;;23.00;59.00;;;;;;5013746;28;20053;-74
2023/03/01 10:26:13;;;;;;;9.27;6.97;;;23.00;58.70;;;;;;5024892;28;20113;-73
2023/03/01 10:29:00;;;;;;;12.73;8.07;;;23.00;58.70;;;;;;5010190;28;20044;-72
2023/03/01 10:31:46;;;;;;;16.38;6.85;;;22.90;58.90;;;;;;5005122;28;20075;-79
2023/03/01 10:34:20;;;;;;;14.30;6.38;;;22.90;58.90;;;;;;5006163;28;20921;-76
2023/03/01 10:36:51;;;;;;;11.25;7.18;;;22.90;58.70;;;;;;5021276;28;20052;-75
2023/03/01 10:39:19;;;;;;;10.63;6.20;;;22.90;58.90;;;;;;4998918;28;20528;-74
2023/03/01 10:42:41;;;;;;;10.57;6.82;;;22.80;58.80;;;;;;5018415;28;20060;-74
2023/03/01 10:45:29;;;;;;;16.00;8.15;;;22.80;58.20;;;;;;4999154;28;20161;-71
2023/03/01 10:48:28;;;;;;;9.45;6.18;;;22.70;52.20;;;;;;4993839;28;20050;-78
2023/03/01 10:50:59;;;;;;;13.07;6.20;;;22.80;49.30;;;;;;4987707;28;20186;-72
2023/03/01 10:53:34;;;;;;;11.40;5.85;;;23.00;55.80;;;;;;5002116;28;20069;-72
2023/03/01 10:56:15;;;;;;;10.35;5.72;;;23.20;55.10;;;;;;5002814;28;20041;-70
2023/03/01 10:59:02;;;;;;;13.57;6.30;;;23.30;52.40;;;;;;5002092;28;20116;-74
2023/03/01 11:01:34;;;;;;;11.85;6.60;;;23.20;49.20;;;;;;5006653;28;20042;-72
2023/03/01 11:04:06;;;;;;;11.35;6.38;;;23.30;41.30;;;;;;5007572;28;20038;-71
2023/03/01 11:06:34;;;;;;;10.13;6.47;;;23.30;52.50;;;;;;5005860;28;20120;-72
2023/03/01 11:09:18;;;;;;;9.55;6.28;;;23.20;56.80;;;;;;5011437;28;20042;-72
2023/03/01 11:11:45;;;;;;;14.57;7.93;;;23.20;47.60;;;;;;4999185;28;20443;-72
2023/03/01 11:14:23;;;;;;;18.35;10.20;;;23.30;44.80;;;;;;4983421;28;20050;-73
2023/03/01 11:17:02;;;;;;;16.40;7.78;;;23.70;55.20;;;;;;5003828;28;20046;-77
2023/03/01 11:19:28;;;;;;;14.18;7.75;;;23.80;48.30;;;;;;5000027;28;20116;-74
2023/03/01 11:22:12;;;;;;;11.30;7.15;;;23.80;50.70;;;;;;5035312;28;20120;-74
2023/03/01 11:24:40;;;;;;;7.13;5.35;;;23.90;47.00;;;;;;5045264;28;20041;-75
2023/03/01 11:27:32;;;;;;;7.63;5.75;;;23.90;40.50;;;;;;5037332;28;20489;-74
2023/03/01 11:30:09;;;;;;;10.45;6.65;;;23.80;40.00;;;;;;5039406;28;20079;-72
2023/03/01 11:32:41;;;;;;;14.30;6.65;;;23.70;47.80;;;;;;5035939;28;20530;-74
2023/03/01 11:35:18;;;;;;;11.68;6.45;;;23.80;53.90;;;;;;5027853;28;20036;-73
2023/03/01 11:37:51;;;;;;;12.48;6.93;;;23.70;55.10;;;;;;5052102;28;20029;-73
2023/03/01 11:40:25;;;;;;;10.73;7.45;;;23.60;56.40;;;;;;5050462;28;20033;-73
2023/03/01 11:42:51;;;;;;;13.10;6.65;;;23.60;55.80;;;;;;5038896;28;20129;-71
2023/03/01 11:45:17;;;;;;;13.88;6.05;;;23.50;57.50;;;;;;5037794;28;20079;-72
2023/03/01 11:48:03;;;;;;;10.45;6.18;;;23.50;58.00;;;;;;5051873;28;20037;-71
2023/03/01 11:50:40;;;;;;;12.18;6.68;;;23.40;58.40;;;;;;5044274;28;20056;-72
2023/03/01 11:53:33;;;;;;;12.32;6.50;;;23.50;58.50;;;;;;5052651;28;20503;-72
2023/03/01 11:55:59;;;;;;;9.17;5.90;;;23.40;59.00;;;;;;5052831;28;20087;-72
2023/03/01 11:58:57;;;;;;;10.50;6.40;;;23.30;59.70;;;;;;5045849;28;20290;-71
2023/03/01 12:01:35;;;;;;;7.65;6.13;;;23.20;59.80;;;;;;5020992;28;20045;-73
2023/03/01 12:04:21;;;;;;;10.23;5.95;;;23.30;59.90;;;;;;5030338;28;20120;-72
2023/03/01 12:07:24;;;;;;;11.13;6.20;;;23.20;60.30;;;;;;5020619;28;20050;-71
2023/03/01 12:09:53;;;;;;;10.95;6.40;;;23.30;60.50;;;;;;5030199;28;20061;-73
2023/03/01 12:12:37;;;;;;;11.70;6.85;;;23.20;59.70;;;;;;5030264;28;20132;-73
2023/03/01 12:15:21;;;;;;;12.23;6.07;;;23.10;60.00;;;;;;5005277;28;20038;-75
2023/03/01 12:17:59;;;;;;;10.52;6.65;;;23.00;58.90;;;;;;5014255;28;20048;-73
2023/03/01 12:20:46;;;;;;;10.18;6.70;;;23.00;61.20;;;;;;5030186;28;20037;-73
2023/03/01 12:23:32;;;;;;;8.82;6.90;;;23.00;61.20;;;;;;5030211;28;20045;-75
2023/03/01 12:26:01;;;;;;;10.20;7.32;;;23.00;61.00;;;;;;5020030;28;20421;-73
2023/03/01 12:29:00;;;;;;;11.68;7.05;;;22.90;61.90;;;;;;5010019;28;20045;-74
2023/03/01 12:31:45;;;;;;;11.85;6.82;;;22.90;61.90;;;;;;5018162;28;20064;-73
2023/03/01 12:34:22;;;;;;;11.85;6.90;;;22.90;61.40;;;;;;5024085;28;20057;-74
2023/03/01 12:36:48;;;;;;;14.00;7.72;;;22.90;61.50;;;;;;5017799;28;20113;-73
2023/03/01 12:39:33;;;;;;;7.90;6.72;;;23.00;61.20;;;;;;5046517;28;20040;-72
2023/03/01 12:42:27;;;;;;;11.93;7.70;;;22.90;60.50;;;;;;5050525;28;20025;-72
2023/03/01 12:45:02;;;;;;;9.65;7.18;;;22.80;62.20;;;;;;5028835;28;20037;-73
2023/03/01 12:47:40;;;;;;;11.30;7.60;;;22.60;61.20;;;;;;5031404;28;20025;-74
2023/03/01 12:50:35;;;;;;;11.00;7.85;;;22.60;62.30;;;;;;5041294;28;20041;-72
2023/03/01 12:53:01;;;;;;;11.55;8.48;;;22.60;61.70;;;;;;5026380;28;20128;-73
2023/03/01 12:55:36;;;;;;;14.90;8.27;;;22.60;61.60;;;;;;5044897;28;20243;-71